sensor_id;sensor_type;location;lat;lon;timestamp;temperature;humidity
39751;DHT22;37579;51.074;17.004;2023-09-19T00:00:46;28.90;77.60
39751;DHT22;37579;51.074;17.004;2023-09-19T00:03:15;28.90;77.70
39751;DHT22;37579;51.074;17.004;2023-09-19T00:05:40;28.80;77.50
39751;DHT22;37579;51.074;17.004;2023-09-19T00:08:10;28.90;77.50
39751;DHT22;37579;51.074;17.004;2023-09-19T00:10:36;28.90;77.70
39751;DHT22;37579;51.074;17.004;2023-09-19T00:13:03;28.90;77.60
39751;DHT22;37579;51.074;17.004;2023-09-19T00:15:40;28.90;77.70
39751;DHT22;37579;51.074;17.004;2023-09-19T00:18:07;28.80;77.90
39751;DHT22;37579;51.074;17.004;2023-09-19T00:20:38;28.80;78.00
39751;DHT22;37579;51.074;17.004;2023-09-19T00:23:05;28.80;77.80
39751;DHT22;37579;51.074;17.004;2023-09-19T00:25:30;28.80;77.90
39751;DHT22;37579;51.074;17.004;2023-09-19T00:27:57;28.80;77.90
39751;DHT22;37579;51.074;17.004;2023-09-19T00:30:23;28.80;78.10
39751;DHT22;37579;51.074;17.004;2023-09-19T00:32:51;28.80;78.10
39751;DHT22;37579;51.074;17.004;2023-09-19T00:35:23;28.80;78.10
39751;DHT22;37579;51.074;17.004;2023-09-19T00:37:50;28.80;78.10
39751;DHT22;37579;51.074;17.004;2023-09-19T00:40:15;28.70;78.40
39751;DHT22;37579;51.074;17.004;2023-09-19T00:42:46;28.80;78.20
39751;DHT22;37579;51.074;17.004;2023-09-19T00:45:14;28.80;78.10
39751;DHT22;37579;51.074;17.004;2023-09-19T00:47:42;28.80;78.10
39751;DHT22;37579;51.074;17.004;2023-09-19T00:50:10;28.80;78.20
39751;DHT22;37579;51.074;17.004;2023-09-19T00:52:39;28.80;78.30
39751;DHT22;37579;51.074;17.004;2023-09-19T00:55:10;28.80;78.30
39751;DHT22;37579;51.074;17.004;2023-09-19T00:57:38;28.80;78.40
39751;DHT22;37579;51.074;17.004;2023-09-19T01:00:05;28.80;78.20
39751;DHT22;37579;51.074;17.004;2023-09-19T01:02:34;28.90;78.40
39751;DHT22;37579;51.074;17.004;2023-09-19T01:05:01;28.80;78.40
39751;DHT22;37579;51.074;17.004;2023-09-19T01:07:32;28.80;78.30
39751;DHT22;37579;51.074;17.004;2023-09-19T01:09:59;28.80;78.50
39751;DHT22;37579;51.074;17.004;2023-09-19T01:13:05;28.80;78.70
39751;DHT22;37579;51.074;17.004;2023-09-19T01:20:55;28.80;78.70
39751;DHT22;37579;51.074;17.004;2023-09-19T01:29:16;28.80;78.90
39751;DHT22;37579;51.074;17.004;2023-09-19T01:31:47;28.80;79.00
39751;DHT22;37579;51.074;17.004;2023-09-19T01:34:14;28.80;79.10
39751;DHT22;37579;51.074;17.004;2023-09-19T01:36:40;28.80;78.90
39751;DHT22;37579;51.074;17.004;2023-09-19T01:39:10;28.80;79.10
39751;DHT22;37579;51.074;17.004;2023-09-19T01:41:59;28.70;79.30
39751;DHT22;37579;51.074;17.004;2023-09-19T01:47:23;28.80;79.40
39751;DHT22;37579;51.074;17.004;2023-09-19T01:53:05;28.80;79.40
39751;DHT22;37579;51.074;17.004;2023-09-19T01:55:40;28.80;79.40
39751;DHT22;37579;51.074;17.004;2023-09-19T01:58:37;28.80;79.60
39751;DHT22;37579;51.074;17.004;2023-09-19T02:01:05;28.80;79.50
39751;DHT22;37579;51.074;17.004;2023-09-19T02:03:35;28.80;79.60
39751;DHT22;37579;51.074;17.004;2023-09-19T02:06:02;28.80;79.60
39751;DHT22;37579;51.074;17.004;2023-09-19T02:08:31;28.80;79.50
39751;DHT22;37579;51.074;17.004;2023-09-19T02:10:58;28.80;79.60
39751;DHT22;37579;51.074;17.004;2023-09-19T02:13:25;28.80;79.60
39751;DHT22;37579;51.074;17.004;2023-09-19T02:15:52;28.80;79.70
39751;DHT22;37579;51.074;17.004;2023-09-19T02:18:18;28.80;79.70
39751;DHT22;37579;51.074;17.004;2023-09-19T02:20:43;28.80;79.70
39751;DHT22;37579;51.074;17.004;2023-09-19T02:23:10;28.80;79.80
39751;DHT22;37579;51.074;17.004;2023-09-19T02:25:36;28.80;79.80
39751;DHT22;37579;51.074;17.004;2023-09-19T02:28:03;28.80;80.00
39751;DHT22;37579;51.074;17.004;2023-09-19T02:30:31;28.80;79.90
39751;DHT22;37579;51.074;17.004;2023-09-19T02:32:57;28.80;80.20
39751;DHT22;37579;51.074;17.004;2023-09-19T02:35:23;28.80;80.30
39751;DHT22;37579;51.074;17.004;2023-09-19T02:37:49;28.80;80.20
39751;DHT22;37579;51.074;17.004;2023-09-19T02:40:15;28.80;80.20
39751;DHT22;37579;51.074;17.004;2023-09-19T02:42:55;28.80;80.00
39751;DHT22;37579;51.074;17.004;2023-09-19T02:45:22;28.70;80.20
39751;DHT22;37579;51.074;17.004;2023-09-19T02:47:49;28.80;80.30
39751;DHT22;37579;51.074;17.004;2023-09-19T02:50:15;28.80;80.40
39751;DHT22;37579;51.074;17.004;2023-09-19T02:52:42;28.80;80.40
39751;DHT22;37579;51.074;17.004;2023-09-19T02:55:13;28.80;80.40
39751;DHT22;37579;51.074;17.004;2023-09-19T02:57:53;28.80;80.40
39751;DHT22;37579;51.074;17.004;2023-09-19T03:00:22;28.80;80.50
39751;DHT22;37579;51.074;17.004;2023-09-19T03:02:54;28.80;80.40
39751;DHT22;37579;51.074;17.004;2023-09-19T03:05:20;28.80;80.60
39751;DHT22;37579;51.074;17.004;2023-09-19T03:07:47;28.80;80.60
39751;DHT22;37579;51.074;17.004;2023-09-19T03:10:17;28.80;80.80
39751;DHT22;37579;51.074;17.004;2023-09-19T03:12:43;28.80;81.00
39751;DHT22;37579;51.074;17.004;2023-09-19T03:15:09;28.80;81.00
39751;DHT22;37579;51.074;17.004;2023-09-19T03:17:36;28.80;81.10
39751;DHT22;37579;51.074;17.004;2023-09-19T03:20:02;28.70;81.20
39751;DHT22;37579;51.074;17.004;2023-09-19T03:22:35;28.70;81.60
39751;DHT22;37579;51.074;17.004;2023-09-19T03:25:03;28.70;82.40
39751;DHT22;37579;51.074;17.004;2023-09-19T03:27:35;28.70;82.90
39751;DHT22;37579;51.074;17.004;2023-09-19T03:32:33;28.60;78.80
39751;DHT22;37579;51.074;17.004;2023-09-19T03:35:01;28.70;79.30
39751;DHT22;37579;51.074;17.004;2023-09-19T03:37:27;28.70;79.40
39751;DHT22;37579;51.074;17.004;2023-09-19T03:39:53;28.80;79.70
39751;DHT22;37579;51.074;17.004;2023-09-19T03:42:19;28.70;79.90
39751;DHT22;37579;51.074;17.004;2023-09-19T03:44:51;28.70;80.30
39751;DHT22;37579;51.074;17.004;2023-09-19T03:47:18;28.70;80.50
39751;DHT22;37579;51.074;17.004;2023-09-19T03:49:47;28.70;80.90
39751;DHT22;37579;51.074;17.004;2023-09-19T03:52:12;28.80;81.50
39751;DHT22;37579;51.074;17.004;2023-09-19T03:54:38;28.80;82.40
39751;DHT22;37579;51.074;17.004;2023-09-19T04:09:21;28.60;83.50
39751;DHT22;37579;51.074;17.004;2023-09-19T04:11:47;28.80;84.50
39751;DHT22;37579;51.074;17.004;2023-09-19T04:14:15;28.70;85.30
39751;DHT22;37579;51.074;17.004;2023-09-19T04:19:08;28.80;83.00
39751;DHT22;37579;51.074;17.004;2023-09-19T04:21:34;28.80;83.10
39751;DHT22;37579;51.074;17.004;2023-09-19T04:24:00;28.80;82.90
39751;DHT22;37579;51.074;17.004;2023-09-19T04:26:25;28.80;82.90
39751;DHT22;37579;51.074;17.004;2023-09-19T04:28:51;28.70;83.00
39751;DHT22;37579;51.074;17.004;2023-09-19T04:31:17;28.70;83.10
39751;DHT22;37579;51.074;17.004;2023-09-19T04:33:44;28.80;84.00
39751;DHT22;37579;51.074;17.004;2023-09-19T04:36:09;28.80;84.00
39751;DHT22;37579;51.074;17.004;2023-09-19T04:38:35;28.80;84.00
39751;DHT22;37579;51.074;17.004;2023-09-19T04:41:01;28.80;83.80
39751;DHT22;37579;51.074;17.004;2023-09-19T04:43:27;28.80;83.80
39751;DHT22;37579;51.074;17.004;2023-09-19T04:45:54;28.80;84.00
39751;DHT22;37579;51.074;17.004;2023-09-19T04:48:23;28.80;84.00
39751;DHT22;37579;51.074;17.004;2023-09-19T04:50:50;28.80;84.40
39751;DHT22;37579;51.074;17.004;2023-09-19T04:53:17;28.80;83.90
39751;DHT22;37579;51.074;17.004;2023-09-19T04:55:50;28.80;84.20
39751;DHT22;37579;51.074;17.004;2023-09-19T04:58:16;28.80;84.40
39751;DHT22;37579;51.074;17.004;2023-09-19T05:00:43;28.80;84.50
39751;DHT22;37579;51.074;17.004;2023-09-19T05:03:09;28.80;84.50
39751;DHT22;37579;51.074;17.004;2023-09-19T05:05:34;28.80;84.80
39751;DHT22;37579;51.074;17.004;2023-09-19T05:08:00;28.80;84.90
39751;DHT22;37579;51.074;17.004;2023-09-19T05:10:28;28.90;85.00
39751;DHT22;37579;51.074;17.004;2023-09-19T05:12:54;28.90;85.20
39751;DHT22;37579;51.074;17.004;2023-09-19T05:15:20;28.80;85.40
39751;DHT22;37579;51.074;17.004;2023-09-19T05:17:50;28.80;85.70
39751;DHT22;37579;51.074;17.004;2023-09-19T05:20:17;28.80;85.60
39751;DHT22;37579;51.074;17.004;2023-09-19T05:25:31;28.80;85.40
39751;DHT22;37579;51.074;17.004;2023-09-19T05:30:27;28.80;85.60
39751;DHT22;37579;51.074;17.004;2023-09-19T05:35:22;28.80;85.60
39751;DHT22;37579;51.074;17.004;2023-09-19T05:37:51;28.90;86.30
39751;DHT22;37579;51.074;17.004;2023-09-19T05:42:46;28.80;85.90
39751;DHT22;37579;51.074;17.004;2023-09-19T06:05:07;28.80;72.40
39751;DHT22;37579;51.074;17.004;2023-09-19T06:07:36;29.00;73.00
39751;DHT22;37579;51.074;17.004;2023-09-19T06:10:06;29.10;72.70
39751;DHT22;37579;51.074;17.004;2023-09-19T06:12:33;29.10;72.30
39751;DHT22;37579;51.074;17.004;2023-09-19T06:15:04;28.90;73.50
39751;DHT22;37579;51.074;17.004;2023-09-19T06:17:31;28.70;73.80
39751;DHT22;37579;51.074;17.004;2023-09-19T06:19:57;28.40;74.20
39751;DHT22;37579;51.074;17.004;2023-09-19T06:22:23;28.30;73.90
39751;DHT22;37579;51.074;17.004;2023-09-19T06:24:50;28.30;74.20
39751;DHT22;37579;51.074;17.004;2023-09-19T06:27:15;28.50;74.50
39751;DHT22;37579;51.074;17.004;2023-09-19T06:29:41;28.50;73.90
39751;DHT22;37579;51.074;17.004;2023-09-19T06:32:10;28.70;75.80
39751;DHT22;37579;51.074;17.004;2023-09-19T06:34:36;28.70;75.70
39751;DHT22;37579;51.074;17.004;2023-09-19T06:37:04;28.80;76.40
39751;DHT22;37579;51.074;17.004;2023-09-19T06:39:32;28.80;76.30
39751;DHT22;37579;51.074;17.004;2023-09-19T06:41:58;28.80;76.30
39751;DHT22;37579;51.074;17.004;2023-09-19T06:44:26;28.90;76.20
39751;DHT22;37579;51.074;17.004;2023-09-19T06:46:51;28.90;76.40
39751;DHT22;37579;51.074;17.004;2023-09-19T06:49:17;28.90;76.40
39751;DHT22;37579;51.074;17.004;2023-09-19T06:51:43;29.00;76.40
39751;DHT22;37579;51.074;17.004;2023-09-19T06:54:10;29.00;76.70
39751;DHT22;37579;51.074;17.004;2023-09-19T06:56:35;29.00;76.30
39751;DHT22;37579;51.074;17.004;2023-09-19T06:59:01;29.00;76.20
39751;DHT22;37579;51.074;17.004;2023-09-19T07:01:28;29.10;76.50
39751;DHT22;37579;51.074;17.004;2023-09-19T07:03:54;29.00;76.40
39751;DHT22;37579;51.074;17.004;2023-09-19T07:06:20;29.00;76.20
39751;DHT22;37579;51.074;17.004;2023-09-19T07:08:46;29.10;76.00
39751;DHT22;37579;51.074;17.004;2023-09-19T07:11:12;29.10;75.90
39751;DHT22;37579;51.074;17.004;2023-09-19T07:13:38;29.20;75.70
39751;DHT22;37579;51.074;17.004;2023-09-19T07:16:04;29.20;75.90
39751;DHT22;37579;51.074;17.004;2023-09-19T07:18:30;29.20;76.00
39751;DHT22;37579;51.074;17.004;2023-09-19T07:20:58;29.20;75.90
39751;DHT22;37579;51.074;17.004;2023-09-19T07:23:30;29.20;76.10
39751;DHT22;37579;51.074;17.004;2023-09-19T07:26:03;29.30;76.20
39751;DHT22;37579;51.074;17.004;2023-09-19T07:28:31;29.20;76.50
39751;DHT22;37579;51.074;17.004;2023-09-19T07:30:56;29.20;75.70
39751;DHT22;37579;51.074;17.004;2023-09-19T07:33:22;29.20;75.90
39751;DHT22;37579;51.074;17.004;2023-09-19T07:35:52;29.20;75.70
39751;DHT22;37579;51.074;17.004;2023-09-19T07:38:18;29.10;76.20
39751;DHT22;37579;51.074;17.004;2023-09-19T07:40:43;29.10;76.60
39751;DHT22;37579;51.074;17.004;2023-09-19T07:43:09;29.20;76.40
39751;DHT22;37579;51.074;17.004;2023-09-19T07:45:35;29.20;76.40
39751;DHT22;37579;51.074;17.004;2023-09-19T07:48:02;29.20;76.50
39751;DHT22;37579;51.074;17.004;2023-09-19T07:50:30;29.20;76.70
39751;DHT22;37579;51.074;17.004;2023-09-19T07:52:56;29.20;76.60
39751;DHT22;37579;51.074;17.004;2023-09-19T07:55:22;29.20;76.60
39751;DHT22;37579;51.074;17.004;2023-09-19T07:57:54;29.20;76.50
39751;DHT22;37579;51.074;17.004;2023-09-19T08:00:20;29.10;76.50
39751;DHT22;37579;51.074;17.004;2023-09-19T08:02:46;29.10;76.60
39751;DHT22;37579;51.074;17.004;2023-09-19T08:05:13;29.10;76.80
39751;DHT22;37579;51.074;17.004;2023-09-19T08:07:44;29.10;77.30
39751;DHT22;37579;51.074;17.004;2023-09-19T08:10:14;29.10;76.90
39751;DHT22;37579;51.074;17.004;2023-09-19T08:12:44;29.10;77.10
39751;DHT22;37579;51.074;17.004;2023-09-19T08:15:17;29.00;76.80
39751;DHT22;37579;51.074;17.004;2023-09-19T08:17:47;29.10;76.80
39751;DHT22;37579;51.074;17.004;2023-09-19T08:20:13;29.00;76.40
39751;DHT22;37579;51.074;17.004;2023-09-19T08:22:52;29.00;76.40
39751;DHT22;37579;51.074;17.004;2023-09-19T08:25:23;29.00;75.70
39751;DHT22;37579;51.074;17.004;2023-09-19T08:27:50;29.10;76.50
39751;DHT22;37579;51.074;17.004;2023-09-19T08:30:18;28.90;75.60
39751;DHT22;37579;51.074;17.004;2023-09-19T08:32:45;28.60;75.40
39751;DHT22;37579;51.074;17.004;2023-09-19T08:35:12;28.50;75.20
39751;DHT22;37579;51.074;17.004;2023-09-19T08:37:37;28.40;75.30
39751;DHT22;37579;51.074;17.004;2023-09-19T08:40:04;28.30;75.10
39751;DHT22;37579;51.074;17.004;2023-09-19T08:42:31;28.30;74.70
39751;DHT22;37579;51.074;17.004;2023-09-19T08:45:13;28.30;75.00
39751;DHT22;37579;51.074;17.004;2023-09-19T08:47:46;28.20;75.20
39751;DHT22;37579;51.074;17.004;2023-09-19T08:50:27;28.20;75.30
39751;DHT22;37579;51.074;17.004;2023-09-19T08:52:55;28.10;75.30
39751;DHT22;37579;51.074;17.004;2023-09-19T08:55:26;27.90;75.30
39751;DHT22;37579;51.074;17.004;2023-09-19T08:58:04;27.80;75.10
39751;DHT22;37579;51.074;17.004;2023-09-19T09:00:32;27.70;75.00
39751;DHT22;37579;51.074;17.004;2023-09-19T09:02:59;27.60;75.10
39751;DHT22;37579;51.074;17.004;2023-09-19T09:05:27;27.50;75.10
39751;DHT22;37579;51.074;17.004;2023-09-19T09:07:53;27.60;75.00
39751;DHT22;37579;51.074;17.004;2023-09-19T09:10:22;27.50;75.00
39751;DHT22;37579;51.074;17.004;2023-09-19T09:12:51;27.40;75.40
39751;DHT22;37579;51.074;17.004;2023-09-19T09:15:22;27.40;75.30
39751;DHT22;37579;51.074;17.004;2023-09-19T09:17:52;27.50;75.30
39751;DHT22;37579;51.074;17.004;2023-09-19T09:20:21;27.40;75.20
39751;DHT22;37579;51.074;17.004;2023-09-19T09:22:54;27.30;75.30
39751;DHT22;37579;51.074;17.004;2023-09-19T09:25:20;27.40;75.40
39751;DHT22;37579;51.074;17.004;2023-09-19T09:27:59;27.30;75.40
39751;DHT22;37579;51.074;17.004;2023-09-19T09:30:33;27.30;75.50
39751;DHT22;37579;51.074;17.004;2023-09-19T09:33:13;27.30;75.60
39751;DHT22;37579;51.074;17.004;2023-09-19T09:35:56;27.30;75.50
39751;DHT22;37579;51.074;17.004;2023-09-19T09:38:24;27.30;76.00
39751;DHT22;37579;51.074;17.004;2023-09-19T09:40:56;27.30;75.60
39751;DHT22;37579;51.074;17.004;2023-09-19T09:43:33;27.30;75.60
39751;DHT22;37579;51.074;17.004;2023-09-19T09:46:15;27.40;75.60
39751;DHT22;37579;51.074;17.004;2023-09-19T09:49:03;27.60;75.40
39751;DHT22;37579;51.074;17.004;2023-09-19T09:54:34;27.90;75.10
39751;DHT22;37579;51.074;17.004;2023-09-19T09:57:08;28.00;74.50
39751;DHT22;37579;51.074;17.004;2023-09-19T09:59:58;28.10;74.60
39751;DHT22;37579;51.074;17.004;2023-09-19T10:02:42;28.20;74.40
39751;DHT22;37579;51.074;17.004;2023-09-19T10:05:18;28.20;74.70
39751;DHT22;37579;51.074;17.004;2023-09-19T10:07:51;28.20;74.30
39751;DHT22;37579;51.074;17.004;2023-09-19T10:14:07;28.40;73.70
39751;DHT22;37579;51.074;17.004;2023-09-19T10:16:36;28.40;73.70
39751;DHT22;37579;51.074;17.004;2023-09-19T10:19:07;28.40;73.60
39751;DHT22;37579;51.074;17.004;2023-09-19T10:21:36;28.40;73.30
39751;DHT22;37579;51.074;17.004;2023-09-19T10:24:05;28.40;73.50
39751;DHT22;37579;51.074;17.004;2023-09-19T10:26:35;28.50;73.90
39751;DHT22;37579;51.074;17.004;2023-09-19T10:29:01;28.50;73.40
39751;DHT22;37579;51.074;17.004;2023-09-19T10:31:29;28.40;74.00
39751;DHT22;37579;51.074;17.004;2023-09-19T10:34:03;28.50;74.30
39751;DHT22;37579;51.074;17.004;2023-09-19T10:36:33;28.50;73.60
39751;DHT22;37579;51.074;17.004;2023-09-19T10:39:02;28.40;73.50
39751;DHT22;37579;51.074;17.004;2023-09-19T10:41:32;28.40;73.30
39751;DHT22;37579;51.074;17.004;2023-09-19T10:44:04;28.40;73.00
39751;DHT22;37579;51.074;17.004;2023-09-19T10:46:33;28.40;72.20
39751;DHT22;37579;51.074;17.004;2023-09-19T10:49:00;28.40;72.30
39751;DHT22;37579;51.074;17.004;2023-09-19T10:51:30;28.50;72.70
39751;DHT22;37579;51.074;17.004;2023-09-19T10:54:06;28.50;72.40
39751;DHT22;37579;51.074;17.004;2023-09-19T10:56:38;28.60;71.70
39751;DHT22;37579;51.074;17.004;2023-09-19T10:59:15;28.60;72.40
39751;DHT22;37579;51.074;17.004;2023-09-19T11:01:55;28.60;72.60
39751;DHT22;37579;51.074;17.004;2023-09-19T11:04:26;28.60;71.90
39751;DHT22;37579;51.074;17.004;2023-09-19T11:07:08;28.60;71.80
39751;DHT22;37579;51.074;17.004;2023-09-19T11:09:53;28.60;72.40
39751;DHT22;37579;51.074;17.004;2023-09-19T11:15:08;28.60;71.40
39751;DHT22;37579;51.074;17.004;2023-09-19T11:17:40;28.60;72.20
39751;DHT22;37579;51.074;17.004;2023-09-19T11:30:32;28.40;71.10
39751;DHT22;37579;51.074;17.004;2023-09-19T11:43:50;28.50;70.10
39751;DHT22;37579;51.074;17.004;2023-09-19T11:46:19;28.60;70.00
39751;DHT22;37579;51.074;17.004;2023-09-19T11:48:51;28.60;69.90
39751;DHT22;37579;51.074;17.004;2023-09-19T11:51:19;28.60;70.30
39751;DHT22;37579;51.074;17.004;2023-09-19T11:53:49;28.50;69.80
39751;DHT22;37579;51.074;17.004;2023-09-19T11:56:17;28.50;69.80
39751;DHT22;37579;51.074;17.004;2023-09-19T11:58:44;28.50;70.30
39751;DHT22;37579;51.074;17.004;2023-09-19T12:01:14;28.60;70.30
39751;DHT22;37579;51.074;17.004;2023-09-19T12:03:47;28.60;69.90
39751;DHT22;37579;51.074;17.004;2023-09-19T12:06:20;28.50;69.80
39751;DHT22;37579;51.074;17.004;2023-09-19T12:08:48;28.50;69.90
39751;DHT22;37579;51.074;17.004;2023-09-19T12:11:18;28.50;69.80
39751;DHT22;37579;51.074;17.004;2023-09-19T12:13:46;28.50;69.30
39751;DHT22;37579;51.074;17.004;2023-09-19T12:16:18;28.40;68.90
39751;DHT22;37579;51.074;17.004;2023-09-19T12:18:48;28.40;68.70
39751;DHT22;37579;51.074;17.004;2023-09-19T12:26:37;28.40;68.90
39751;DHT22;37579;51.074;17.004;2023-09-19T12:29:03;28.50;69.10
39751;DHT22;37579;51.074;17.004;2023-09-19T12:31:31;28.50;68.80
39751;DHT22;37579;51.074;17.004;2023-09-19T12:34:01;28.60;68.70
39751;DHT22;37579;51.074;17.004;2023-09-19T12:36:27;28.50;68.90
39751;DHT22;37579;51.074;17.004;2023-09-19T12:38:57;28.50;69.30
39751;DHT22;37579;51.074;17.004;2023-09-19T12:41:26;28.60;69.40
39751;DHT22;37579;51.074;17.004;2023-09-19T12:43:53;28.70;69.10
39751;DHT22;37579;51.074;17.004;2023-09-19T12:46:23;28.60;68.70
39751;DHT22;37579;51.074;17.004;2023-09-19T12:49:19;28.70;68.70
39751;DHT22;37579;51.074;17.004;2023-09-19T12:51:49;28.60;68.50
39751;DHT22;37579;51.074;17.004;2023-09-19T12:54:20;28.60;68.70
39751;DHT22;37579;51.074;17.004;2023-09-19T12:56:47;28.70;68.60
39751;DHT22;37579;51.074;17.004;2023-09-19T12:59:15;28.70;68.40
39751;DHT22;37579;51.074;17.004;2023-09-19T13:01:41;28.70;68.10
39751;DHT22;37579;51.074;17.004;2023-09-19T13:04:21;28.70;68.40
39751;DHT22;37579;51.074;17.004;2023-09-19T13:06:55;28.80;68.70
39751;DHT22;37579;51.074;17.004;2023-09-19T13:09:26;28.90;69.00
39751;DHT22;37579;51.074;17.004;2023-09-19T13:12:05;29.10;68.50
39751;DHT22;37579;51.074;17.004;2023-09-19T13:17:46;28.90;68.50
39751;DHT22;37579;51.074;17.004;2023-09-19T13:20:22;28.80;68.70
39751;DHT22;37579;51.074;17.004;2023-09-19T13:22:55;28.90;69.00
39751;DHT22;37579;51.074;17.004;2023-09-19T13:25:25;28.90;69.50
39751;DHT22;37579;51.074;17.004;2023-09-19T13:27:54;28.80;68.90
39751;DHT22;37579;51.074;17.004;2023-09-19T13:30:23;28.80;68.60
39751;DHT22;37579;51.074;17.004;2023-09-19T13:32:51;28.70;68.80
39751;DHT22;37579;51.074;17.004;2023-09-19T13:35:18;28.70;68.80
39751;DHT22;37579;51.074;17.004;2023-09-19T13:37:44;28.60;68.90
39751;DHT22;37579;51.074;17.004;2023-09-19T13:40:17;28.50;69.00
39751;DHT22;37579;51.074;17.004;2023-09-19T13:42:43;28.50;69.00
39751;DHT22;37579;51.074;17.004;2023-09-19T13:45:09;28.50;69.10
39751;DHT22;37579;51.074;17.004;2023-09-19T13:47:40;28.50;69.00
39751;DHT22;37579;51.074;17.004;2023-09-19T13:50:06;28.60;69.20
39751;DHT22;37579;51.074;17.004;2023-09-19T13:52:33;28.50;69.00
39751;DHT22;37579;51.074;17.004;2023-09-19T13:54:59;28.40;68.90
39751;DHT22;37579;51.074;17.004;2023-09-19T13:57:26;28.40;69.00
39751;DHT22;37579;51.074;17.004;2023-09-19T13:59:52;28.40;69.10
39751;DHT22;37579;51.074;17.004;2023-09-19T14:02:20;28.40;69.00
39751;DHT22;37579;51.074;17.004;2023-09-19T14:04:51;28.40;68.80
39751;DHT22;37579;51.074;17.004;2023-09-19T14:07:17;28.40;68.90
39751;DHT22;37579;51.074;17.004;2023-09-19T14:09:45;28.40;68.80
39751;DHT22;37579;51.074;17.004;2023-09-19T14:12:12;28.40;68.90
39751;DHT22;37579;51.074;17.004;2023-09-19T14:14:37;28.50;68.90
39751;DHT22;37579;51.074;17.004;2023-09-19T14:17:04;28.50;69.10
39751;DHT22;37579;51.074;17.004;2023-09-19T14:19:30;28.50;69.20
39751;DHT22;37579;51.074;17.004;2023-09-19T14:21:56;28.50;69.10
39751;DHT22;37579;51.074;17.004;2023-09-19T14:24:22;28.40;69.30
39751;DHT22;37579;51.074;17.004;2023-09-19T14:26:48;28.40;69.20
39751;DHT22;37579;51.074;17.004;2023-09-19T14:29:15;28.40;69.20
39751;DHT22;37579;51.074;17.004;2023-09-19T14:31:42;28.30;69.00
39751;DHT22;37579;51.074;17.004;2023-09-19T14:34:08;28.40;69.20
39751;DHT22;37579;51.074;17.004;2023-09-19T14:36:38;28.30;69.10
39751;DHT22;37579;51.074;17.004;2023-09-19T14:39:06;28.30;69.30
39751;DHT22;37579;51.074;17.004;2023-09-19T14:41:33;28.30;69.40
39751;DHT22;37579;51.074;17.004;2023-09-19T14:44:01;28.30;69.50
39751;DHT22;37579;51.074;17.004;2023-09-19T14:46:27;28.30;69.60
39751;DHT22;37579;51.074;17.004;2023-09-19T14:48:54;28.30;69.70
39751;DHT22;37579;51.074;17.004;2023-09-19T14:51:22;28.40;69.70
39751;DHT22;37579;51.074;17.004;2023-09-19T14:53:48;28.30;69.60
39751;DHT22;37579;51.074;17.004;2023-09-19T14:56:14;28.30;69.70
39751;DHT22;37579;51.074;17.004;2023-09-19T14:58:44;28.30;69.80
39751;DHT22;37579;51.074;17.004;2023-09-19T15:01:11;28.30;69.70
39751;DHT22;37579;51.074;17.004;2023-09-19T15:03:39;28.30;69.90
39751;DHT22;37579;51.074;17.004;2023-09-19T15:06:07;28.30;69.80
39751;DHT22;37579;51.074;17.004;2023-09-19T15:08:35;28.30;70.00
39751;DHT22;37579;51.074;17.004;2023-09-19T15:11:07;28.30;70.20
39751;DHT22;37579;51.074;17.004;2023-09-19T15:13:34;28.30;70.20
39751;DHT22;37579;51.074;17.004;2023-09-19T15:16:06;28.30;70.30
39751;DHT22;37579;51.074;17.004;2023-09-19T15:18:36;28.30;70.30
39751;DHT22;37579;51.074;17.004;2023-09-19T15:21:09;28.30;70.50
39751;DHT22;37579;51.074;17.004;2023-09-19T15:23:37;28.30;70.70
39751;DHT22;37579;51.074;17.004;2023-09-19T15:26:04;28.30;70.70
39751;DHT22;37579;51.074;17.004;2023-09-19T15:28:31;28.40;70.80
39751;DHT22;37579;51.074;17.004;2023-09-19T15:31:09;28.50;70.90
39751;DHT22;37579;51.074;17.004;2023-09-19T15:33:36;28.50;71.00
39751;DHT22;37579;51.074;17.004;2023-09-19T15:36:15;28.40;70.90
39751;DHT22;37579;51.074;17.004;2023-09-19T15:38:57;28.40;71.00
39751;DHT22;37579;51.074;17.004;2023-09-19T15:41:24;28.50;71.20
39751;DHT22;37579;51.074;17.004;2023-09-19T15:43:50;28.50;71.20
39751;DHT22;37579;51.074;17.004;2023-09-19T15:46:16;28.50;71.30
39751;DHT22;37579;51.074;17.004;2023-09-19T15:48:42;28.50;71.20
39751;DHT22;37579;51.074;17.004;2023-09-19T15:51:08;28.50;71.20
39751;DHT22;37579;51.074;17.004;2023-09-19T15:53:45;28.50;71.20
39751;DHT22;37579;51.074;17.004;2023-09-19T15:56:13;28.50;71.20
39751;DHT22;37579;51.074;17.004;2023-09-19T15:58:42;28.50;71.40
39751;DHT22;37579;51.074;17.004;2023-09-19T16:01:09;28.60;71.70
39751;DHT22;37579;51.074;17.004;2023-09-19T16:03:38;28.60;71.60
39751;DHT22;37579;51.074;17.004;2023-09-19T16:06:09;28.50;71.70
39751;DHT22;37579;51.074;17.004;2023-09-19T16:08:38;28.60;72.10
39751;DHT22;37579;51.074;17.004;2023-09-19T16:11:04;28.60;72.00
39751;DHT22;37579;51.074;17.004;2023-09-19T16:13:29;28.50;72.00
39751;DHT22;37579;51.074;17.004;2023-09-19T16:15:55;28.60;72.10
39751;DHT22;37579;51.074;17.004;2023-09-19T16:18:21;28.50;72.00
39751;DHT22;37579;51.074;17.004;2023-09-19T16:20:47;28.60;71.90
39751;DHT22;37579;51.074;17.004;2023-09-19T16:23:13;28.60;71.90
39751;DHT22;37579;51.074;17.004;2023-09-19T16:25:39;28.50;71.90
39751;DHT22;37579;51.074;17.004;2023-09-19T16:28:07;28.50;71.80
39751;DHT22;37579;51.074;17.004;2023-09-19T16:30:33;28.50;71.80
39751;DHT22;37579;51.074;17.004;2023-09-19T16:33:00;28.40;71.90
39751;DHT22;37579;51.074;17.004;2023-09-19T16:35:26;28.40;72.00
39751;DHT22;37579;51.074;17.004;2023-09-19T16:37:51;28.50;72.20
39751;DHT22;37579;51.074;17.004;2023-09-19T16:40:17;28.50;72.40
39751;DHT22;37579;51.074;17.004;2023-09-19T16:42:43;28.50;72.50
39751;DHT22;37579;51.074;17.004;2023-09-19T16:45:09;28.50;72.70
39751;DHT22;37579;51.074;17.004;2023-09-19T16:47:39;28.50;73.00
39751;DHT22;37579;51.074;17.004;2023-09-19T16:50:06;28.50;73.70
39751;DHT22;37579;51.074;17.004;2023-09-19T16:52:34;28.50;73.00
39751;DHT22;37579;51.074;17.004;2023-09-19T16:55:00;28.50;73.10
39751;DHT22;37579;51.074;17.004;2023-09-19T16:57:25;28.50;73.10
39751;DHT22;37579;51.074;17.004;2023-09-19T16:59:51;28.50;73.20
39751;DHT22;37579;51.074;17.004;2023-09-19T17:02:17;28.50;73.40
39751;DHT22;37579;51.074;17.004;2023-09-19T17:04:43;28.40;73.40
39751;DHT22;37579;51.074;17.004;2023-09-19T17:07:09;28.50;73.50
39751;DHT22;37579;51.074;17.004;2023-09-19T17:09:35;28.50;73.70